KDTL/DTL METAR and TAF weather

Enter ICAO airport designator
Station Type Date Time Source
KDTL METAR 2018/04/23 11:15 UTC NOAA

KDTL 231115Z AUTO 17004KT 10SM CLR 03/00 A3020 RMK AO2


Station Type Date Time Source
KDTL Decoded METAR 2018/04/23 11:15 UTC NOAA

Detroit Lakes, Detroit Lakes Airport-Wething Field, MN, United States (KDTL) 46-50N 095-53W
Apr 23, 2018 - 07:15 AM EDT / 2018.04.23 1115 UTC
Wind: from the S (170 degrees) at 5 MPH (4 KT):0
Visibility: 10 mile(s):0
Sky conditions: clear
Temperature: 37 F (3 C)
Dew Point: 32 F (0 C)
Relative Humidity: 80%
Pressure (altimeter): 30.2 in. Hg (1022 hPa)
ob: KDTL 231115Z AUTO 17004KT 10SM CLR 03/00 A3020 RMK AO2
cycle: 11

Station Type Date Time Source
KDTL TAF UTC NOAA

Error!


Example: see airport list